createdAt,value
2023-01-22T00:01:02.855Z,1.20
2023-01-22T00:03:30.237Z,1.10
2023-01-22T00:05:57.591Z,1.10
2023-01-22T00:08:24.933Z,1.00
2023-01-22T00:10:52.977Z,1.00
2023-01-22T00:13:21.572Z,1.10
2023-01-22T00:15:49.119Z,1.10
2023-01-22T00:18:17.023Z,1.20
2023-01-22T00:20:51.881Z,1.20
2023-01-22T00:23:19.717Z,1.20
2023-01-22T00:25:47.215Z,1.10
2023-01-22T00:28:15.749Z,1.10
2023-01-22T00:30:43.275Z,1.10
2023-01-22T00:33:10.743Z,1.20
2023-01-22T00:35:38.122Z,1.20
2023-01-22T00:38:06.846Z,1.10
2023-01-22T00:40:34.534Z,1.00
2023-01-22T00:43:01.882Z,0.90
2023-01-22T00:45:30.878Z,0.90
2023-01-22T00:50:39.441Z,0.90
2023-01-22T00:53:06.857Z,0.90
2023-01-22T00:55:34.232Z,0.90
2023-01-22T00:58:01.576Z,1.00
2023-01-22T01:00:29.239Z,0.90
2023-01-22T01:03:15.029Z,0.90
2023-01-22T01:05:43.320Z,1.00
2023-01-22T01:08:10.650Z,1.00
2023-01-22T01:10:39.567Z,1.00
2023-01-22T01:13:06.913Z,1.00
2023-01-22T01:15:34.998Z,1.00
2023-01-22T01:18:02.315Z,1.00
2023-01-22T01:20:29.719Z,1.00
2023-01-22T01:22:57.293Z,1.00
2023-01-22T01:25:24.931Z,1.00
2023-01-22T01:27:52.218Z,1.10
2023-01-22T01:30:19.878Z,1.00
2023-01-22T01:32:47.610Z,1.00
2023-01-22T01:35:15.144Z,1.10
2023-01-22T01:37:42.449Z,1.10
2023-01-22T01:40:10.546Z,1.00
2023-01-22T01:42:42.343Z,1.00
2023-01-22T01:45:24.078Z,0.90
2023-01-22T01:48:04.030Z,0.90
2023-01-22T01:50:31.586Z,0.80
2023-01-22T01:53:00.982Z,0.70
2023-01-22T01:55:31.739Z,0.70
2023-01-22T01:58:05.437Z,0.70
2023-01-22T02:00:35.588Z,0.80
2023-01-22T02:03:03.582Z,0.80
2023-01-22T02:05:36.547Z,0.90
2023-01-22T02:08:04.559Z,0.90
2023-01-22T02:10:32.375Z,0.90
2023-01-22T02:13:07.787Z,0.90
2023-01-22T02:15:37.489Z,1.00
2023-01-22T02:18:04.979Z,1.00
2023-01-22T02:20:37.800Z,1.00
2023-01-22T02:23:08.608Z,1.10
2023-01-22T02:25:36.231Z,1.10
2023-01-22T02:28:03.630Z,1.00
2023-01-22T02:30:31.053Z,1.00
2023-01-22T02:32:58.576Z,0.90
2023-01-22T02:35:26.107Z,0.90
2023-01-22T02:37:53.462Z,0.90
2023-01-22T02:40:21.992Z,1.00
2023-01-22T02:42:49.434Z,1.00
2023-01-22T02:45:16.892Z,1.00
2023-01-22T02:47:44.293Z,0.90
2023-01-22T02:50:12.251Z,0.90
2023-01-22T02:52:40.439Z,0.90
2023-01-22T02:55:08.540Z,0.90
2023-01-22T02:57:35.979Z,0.90
2023-01-22T03:00:04.503Z,0.80
2023-01-22T03:02:32.076Z,0.80
2023-01-22T03:05:05.083Z,0.80
2023-01-22T03:07:42.536Z,0.80
2023-01-22T03:10:19.550Z,0.80
2023-01-22T03:13:06.707Z,0.70
2023-01-22T03:15:52.966Z,0.70
2023-01-22T03:18:39.016Z,0.70
2023-01-22T03:21:19.040Z,0.60
2023-01-22T03:23:55.934Z,0.60
2023-01-22T03:26:24.170Z,0.50
2023-01-22T03:28:52.234Z,0.50
2023-01-22T03:31:19.769Z,0.50
2023-01-22T03:33:47.373Z,0.40
2023-01-22T03:36:15.854Z,0.40
2023-01-22T03:38:51.287Z,0.40
2023-01-22T03:41:21.910Z,0.30
2023-01-22T03:43:50.051Z,0.30
2023-01-22T03:46:23.876Z,0.20
2023-01-22T03:48:55.193Z,0.10
2023-01-22T03:51:23.797Z,0.00
2023-01-22T03:53:51.225Z,0.00
2023-01-22T03:56:21.181Z,0.00
2023-01-22T03:58:50.221Z,-0.10
2023-01-22T04:01:26.171Z,-0.20
2023-01-22T04:03:54.241Z,-0.20
2023-01-22T04:06:24.775Z,-0.10
2023-01-22T04:08:54.846Z,-0.10
2023-01-22T04:11:27.142Z,0.00
2023-01-22T04:13:56.011Z,-0.10
2023-01-22T04:16:24.560Z,0.00
2023-01-22T04:18:54.603Z,-0.10
2023-01-22T04:21:40.619Z,0.00
2023-01-22T04:24:10.496Z,0.20
2023-01-22T04:26:37.792Z,0.20
2023-01-22T04:29:05.544Z,0.20
2023-01-22T04:31:33.072Z,0.30
2023-01-22T04:34:26.701Z,0.30
2023-01-22T04:37:16.686Z,0.40
2023-01-22T04:39:45.343Z,0.40
2023-01-22T04:42:12.798Z,0.30
2023-01-22T04:44:40.230Z,0.30
2023-01-22T04:47:08.724Z,0.40
2023-01-22T04:49:38.041Z,0.50
2023-01-22T04:52:08.526Z,0.50
2023-01-22T04:54:36.066Z,0.50
2023-01-22T04:57:03.439Z,0.50
2023-01-22T04:59:30.804Z,0.50
2023-01-22T05:01:58.751Z,0.50
2023-01-22T05:04:26.213Z,0.50
2023-01-22T05:06:53.856Z,0.50
2023-01-22T05:09:21.484Z,0.60
2023-01-22T05:11:54.091Z,0.60
2023-01-22T05:14:21.608Z,0.60
2023-01-22T05:16:49.649Z,0.50
2023-01-22T05:19:17.056Z,0.60
2023-01-22T05:21:44.751Z,0.60
2023-01-22T05:24:16.540Z,0.50
2023-01-22T05:26:43.922Z,0.60
2023-01-22T05:29:15.366Z,0.60
2023-01-22T05:32:18.266Z,0.50
2023-01-22T05:34:52.194Z,0.60
2023-01-22T05:37:19.566Z,0.50
2023-01-22T05:39:47.063Z,0.60
2023-01-22T05:42:16.668Z,0.60
2023-01-22T05:44:47.209Z,0.50
2023-01-22T05:47:15.508Z,0.50
2023-01-22T05:49:58.081Z,0.60
2023-01-22T05:52:25.552Z,0.50
2023-01-22T05:54:52.900Z,0.50
2023-01-22T05:57:20.312Z,0.50
2023-01-22T05:59:47.869Z,0.60
2023-01-22T06:02:15.433Z,0.60
2023-01-22T06:04:44.700Z,0.60
2023-01-22T06:07:20.485Z,0.50
2023-01-22T06:09:48.266Z,0.60
2023-01-22T06:12:16.440Z,0.60
2023-01-22T06:14:43.747Z,0.50
2023-01-22T06:17:12.813Z,0.50
2023-01-22T06:19:45.465Z,0.60
2023-01-22T06:22:13.851Z,0.60
2023-01-22T06:24:48.076Z,0.50
2023-01-22T06:27:18.070Z,0.50
2023-01-22T06:29:53.582Z,0.50
2023-01-22T06:32:21.724Z,0.50
2023-01-22T06:34:49.056Z,0.50
2023-01-22T06:37:18.066Z,0.50
2023-01-22T06:39:45.495Z,0.50
2023-01-22T06:42:22.247Z,0.50
2023-01-22T06:44:51.823Z,0.50
2023-01-22T06:47:21.574Z,0.50
2023-01-22T06:49:48.972Z,0.50
2023-01-22T06:52:16.541Z,0.50
2023-01-22T06:54:44.352Z,0.50
2023-01-22T06:57:11.767Z,0.50
2023-01-22T06:59:40.594Z,0.50
2023-01-22T07:02:08.010Z,0.50
2023-01-22T07:04:35.309Z,0.60
2023-01-22T07:07:02.584Z,0.50
2023-01-22T07:09:30.016Z,0.50
2023-01-22T07:12:00.497Z,0.50
2023-01-22T07:14:36.616Z,0.50
2023-01-22T07:17:04.548Z,0.40
2023-01-22T07:19:31.962Z,0.40
2023-01-22T07:21:59.553Z,0.30
2023-01-22T07:24:27.081Z,0.20
2023-01-22T07:26:54.456Z,0.20
2023-01-22T07:29:21.781Z,0.20
2023-01-22T07:31:49.938Z,0.10
2023-01-22T07:34:17.319Z,0.10
2023-01-22T07:36:46.874Z,0.10
2023-01-22T07:39:15.088Z,0.10
2023-01-22T07:41:42.568Z,0.10
2023-01-22T07:44:13.103Z,0.10
2023-01-22T07:46:40.557Z,0.10
2023-01-22T07:49:08.131Z,0.10
2023-01-22T07:51:35.472Z,0.10
2023-01-22T07:54:03.476Z,0.20
2023-01-22T07:56:30.910Z,0.20
2023-01-22T07:58:59.847Z,0.20
2023-01-22T08:01:27.305Z,0.20
2023-01-22T08:03:54.728Z,0.20
2023-01-22T08:06:22.019Z,0.20
2023-01-22T08:08:49.813Z,0.30
2023-01-22T08:11:17.167Z,0.20
2023-01-22T08:13:44.726Z,0.20
2023-01-22T08:16:12.195Z,0.20
2023-01-22T08:18:39.697Z,0.30
2023-01-22T08:21:07.366Z,0.30
2023-01-22T08:23:34.653Z,0.30
2023-01-22T08:26:04.217Z,0.30
2023-01-22T08:28:32.165Z,0.30
2023-01-22T08:31:01.338Z,0.40
2023-01-22T08:33:31.041Z,0.40
2023-01-22T08:35:58.489Z,0.40
2023-01-22T08:38:25.794Z,0.40
2023-01-22T08:40:53.791Z,0.50
2023-01-22T08:43:21.207Z,0.50
2023-01-22T08:45:50.072Z,0.60
2023-01-22T08:48:18.015Z,0.60
2023-01-22T08:50:45.629Z,0.60
2023-01-22T08:53:12.905Z,0.60
2023-01-22T08:55:40.291Z,0.60
2023-01-22T08:58:08.120Z,0.60
2023-01-22T09:00:35.495Z,0.60
2023-01-22T09:03:02.810Z,0.60
2023-01-22T09:05:30.379Z,0.60
2023-01-22T09:07:57.626Z,0.70
2023-01-22T09:10:25.293Z,0.70
2023-01-22T09:12:52.719Z,0.70
2023-01-22T09:15:20.082Z,0.80
2023-01-22T09:17:47.364Z,0.80
2023-01-22T09:20:14.882Z,0.80
2023-01-22T09:22:45.731Z,0.90
2023-01-22T09:25:13.610Z,0.90
2023-01-22T09:27:40.840Z,0.90
2023-01-22T09:30:09.841Z,0.90
2023-01-22T09:32:37.370Z,0.90
2023-01-22T09:35:05.241Z,0.90
2023-01-22T09:37:32.481Z,0.90
2023-01-22T09:39:59.841Z,1.10
2023-01-22T09:42:32.231Z,1.10
2023-01-22T09:45:06.884Z,1.20
2023-01-22T09:47:39.962Z,1.20
2023-01-22T09:50:15.606Z,1.30
2023-01-22T09:52:43.011Z,1.40
2023-01-22T09:55:16.773Z,1.30
2023-01-22T09:57:55.878Z,1.20
2023-01-22T10:00:54.531Z,1.20
2023-01-22T10:03:40.461Z,1.20
2023-01-22T10:06:14.596Z,1.20
2023-01-22T10:08:55.463Z,1.20
2023-01-22T10:11:23.027Z,1.20
2023-01-22T10:13:54.810Z,1.20
2023-01-22T10:16:22.148Z,1.20
2023-01-22T10:18:58.133Z,1.20
2023-01-22T10:21:31.834Z,1.30
2023-01-22T10:23:59.803Z,1.30
2023-01-22T10:26:29.802Z,1.30
2023-01-22T10:29:03.471Z,1.40
2023-01-22T10:31:41.388Z,1.30
2023-01-22T10:34:16.246Z,1.40
2023-01-22T10:36:50.675Z,1.40
2023-01-22T10:39:18.652Z,1.50
2023-01-22T10:41:47.847Z,1.50
2023-01-22T10:44:19.943Z,1.40
2023-01-22T10:47:09.998Z,1.40
2023-01-22T10:49:37.405Z,1.60
2023-01-22T10:52:23.081Z,1.60
2023-01-22T10:54:57.860Z,1.60
2023-01-22T10:57:34.379Z,1.60
2023-01-22T11:00:11.290Z,1.60
2023-01-22T11:02:46.292Z,1.70
2023-01-22T11:05:30.531Z,1.70
2023-01-22T11:08:05.362Z,1.70
2023-01-22T11:10:56.865Z,1.70
2023-01-22T11:13:35.323Z,1.80
2023-01-22T11:16:18.346Z,1.80
2023-01-22T11:19:12.653Z,1.80
2023-01-22T11:21:47.271Z,1.80
2023-01-22T11:24:36.222Z,1.80
2023-01-22T11:27:09.462Z,1.80
2023-01-22T11:29:55.298Z,1.70
2023-01-22T11:32:41.125Z,1.80
2023-01-22T11:35:35.276Z,2.10
2023-01-22T11:38:23.845Z,2.70
2023-01-22T11:41:04.080Z,3.00
2023-01-22T11:43:40.319Z,3.10
2023-01-22T11:46:07.651Z,3.20
2023-01-22T11:48:41.160Z,3.20
2023-01-22T11:51:17.967Z,3.10
2023-01-22T11:54:14.882Z,2.90
2023-01-22T11:57:03.767Z,2.70
2023-01-22T11:59:40.116Z,2.70
2023-01-22T12:02:22.467Z,2.90
2023-01-22T12:04:49.751Z,3.20
2023-01-22T12:07:52.175Z,3.30
2023-01-22T12:10:28.195Z,3.50
2023-01-22T12:13:32.392Z,3.70
2023-01-22T12:16:24.101Z,3.80
2023-01-22T12:19:00.531Z,3.80
2023-01-22T12:21:38.562Z,3.80
2023-01-22T12:24:18.866Z,3.70
2023-01-22T12:27:05.988Z,3.70
2023-01-22T12:29:47.350Z,3.50
2023-01-22T12:32:19.352Z,3.30
2023-01-22T12:35:10.306Z,3.20
2023-01-22T12:37:44.058Z,3.10
2023-01-22T12:40:20.454Z,3.20
2023-01-22T12:43:03.063Z,3.30
2023-01-22T12:45:53.850Z,3.60
2023-01-22T12:48:42.177Z,3.80
2023-01-22T12:51:38.739Z,3.70
2023-01-22T12:54:23.077Z,3.60
2023-01-22T12:56:51.177Z,3.50
2023-01-22T12:59:33.586Z,3.50
2023-01-22T13:02:05.969Z,3.50
2023-01-22T13:04:34.286Z,3.50
2023-01-22T13:07:07.405Z,3.40
2023-01-22T13:09:37.845Z,3.50
2023-01-22T13:12:25.260Z,3.60
2023-01-22T13:14:52.857Z,3.60
2023-01-22T13:17:23.609Z,3.50
2023-01-22T13:19:52.008Z,3.30
2023-01-22T13:22:25.875Z,3.30
2023-01-22T13:24:55.579Z,3.30
2023-01-22T13:27:36.465Z,3.40
2023-01-22T13:30:31.265Z,3.40
2023-01-22T13:33:12.025Z,3.40
2023-01-22T13:35:46.900Z,3.40
2023-01-22T13:38:23.375Z,3.40
2023-01-22T13:41:04.295Z,3.50
2023-01-22T13:43:33.784Z,3.60
2023-01-22T13:46:01.221Z,3.60
2023-01-22T13:48:29.132Z,3.50
2023-01-22T13:51:00.496Z,3.50
2023-01-22T13:53:39.247Z,3.40
2023-01-22T13:56:11.951Z,3.50
2023-01-22T13:58:48.440Z,3.50
2023-01-22T14:01:36.797Z,3.50
2023-01-22T14:04:07.436Z,3.50
2023-01-22T14:06:47.466Z,3.60
2023-01-22T14:09:35.221Z,3.50
2023-01-22T14:12:15.516Z,3.40
2023-01-22T14:14:43.656Z,3.40
2023-01-22T14:17:34.203Z,3.20
2023-01-22T14:20:02.859Z,3.10
2023-01-22T14:22:30.104Z,3.10
2023-01-22T14:24:57.463Z,3.10
2023-01-22T14:27:29.040Z,3.10
2023-01-22T14:29:56.366Z,3.10
2023-01-22T14:32:23.950Z,3.10
2023-01-22T14:34:51.264Z,3.10
2023-01-22T14:37:19.181Z,3.00
2023-01-22T14:39:46.451Z,3.00
2023-01-22T14:42:13.721Z,3.00
2023-01-22T14:44:41.033Z,3.00
2023-01-22T14:47:08.259Z,3.00
2023-01-22T14:49:35.795Z,3.00
2023-01-22T14:52:03.076Z,3.00
2023-01-22T14:54:30.387Z,3.00
2023-01-22T14:56:59.707Z,2.90
2023-01-22T14:59:26.984Z,2.90
2023-01-22T15:01:54.319Z,2.80
2023-01-22T15:04:21.639Z,2.80
2023-01-22T15:06:48.900Z,2.80
2023-01-22T15:09:16.159Z,2.90
2023-01-22T15:11:43.499Z,2.90
2023-01-22T15:14:10.935Z,2.90
2023-01-22T15:16:39.052Z,3.00
2023-01-22T15:19:06.457Z,3.00
2023-01-22T15:21:33.715Z,3.00
2023-01-22T15:24:01.720Z,3.00
2023-01-22T15:26:33.605Z,2.90
2023-01-22T15:29:01.116Z,2.90
2023-01-22T15:31:28.476Z,2.90
2023-01-22T15:33:58.043Z,2.80
2023-01-22T15:36:25.409Z,2.90
2023-01-22T15:38:52.655Z,2.80
2023-01-22T15:41:25.848Z,2.80
2023-01-22T15:43:56.191Z,2.80
2023-01-22T15:46:25.446Z,2.80
2023-01-22T15:48:53.080Z,2.80
2023-01-22T15:51:21.262Z,2.80
2023-01-22T15:53:53.483Z,2.80
2023-01-22T15:56:22.594Z,2.80
2023-01-22T15:58:51.274Z,2.70
2023-01-22T16:01:19.610Z,2.70
2023-01-22T16:03:47.293Z,2.70
2023-01-22T16:06:20.055Z,2.60
2023-01-22T16:08:47.624Z,2.60
2023-01-22T16:11:15.662Z,2.50
2023-01-22T16:13:43.343Z,2.50
2023-01-22T16:16:31.640Z,2.50
2023-01-22T16:19:00.780Z,2.50
2023-01-22T16:21:28.062Z,2.50
2023-01-22T16:24:00.542Z,2.40
2023-01-22T16:26:30.973Z,2.40
2023-01-22T16:28:59.721Z,2.40
2023-01-22T16:31:30.052Z,2.40
2023-01-22T16:34:00.313Z,2.40
2023-01-22T16:36:29.947Z,2.40
2023-01-22T16:38:57.294Z,2.30
2023-01-22T16:41:30.068Z,2.30
2023-01-22T16:44:01.026Z,2.30
2023-01-22T16:46:31.269Z,2.20
2023-01-22T16:49:01.297Z,2.10
2023-01-22T16:51:34.804Z,2.10
2023-01-22T16:54:02.262Z,2.00
2023-01-22T16:56:29.508Z,1.90
2023-01-22T16:58:56.814Z,1.90
2023-01-22T17:01:24.227Z,1.80
2023-01-22T17:03:51.771Z,1.80
2023-01-22T17:06:29.540Z,1.80
2023-01-22T17:08:56.966Z,1.80
2023-01-22T17:11:24.280Z,1.80
2023-01-22T17:13:51.885Z,1.80
2023-01-22T17:16:19.995Z,1.90
2023-01-22T17:18:47.297Z,1.90
2023-01-22T17:21:17.484Z,2.00
2023-01-22T17:23:45.415Z,2.00
2023-01-22T17:26:15.549Z,2.00
2023-01-22T17:28:42.886Z,2.00
2023-01-22T17:31:12.913Z,2.00
2023-01-22T17:33:40.288Z,2.00
2023-01-22T17:36:09.463Z,2.00
2023-01-22T17:38:38.611Z,2.00
2023-01-22T17:41:26.194Z,2.10
2023-01-22T17:43:56.140Z,2.10
2023-01-22T17:46:26.760Z,2.20
2023-01-22T17:48:54.436Z,2.20
2023-01-22T17:51:24.436Z,2.20
2023-01-22T17:53:53.047Z,2.20
2023-01-22T17:56:26.574Z,2.20
2023-01-22T17:58:59.479Z,2.30
2023-01-22T18:01:30.253Z,2.40
2023-01-22T18:03:59.760Z,2.40
2023-01-22T18:06:27.008Z,2.40
2023-01-22T18:08:55.151Z,2.40
2023-01-22T18:11:27.951Z,2.40
2023-01-22T18:14:00.582Z,2.40
2023-01-22T18:16:30.189Z,2.40
2023-01-22T18:18:59.139Z,2.40
2023-01-22T18:21:26.886Z,2.40
2023-01-22T18:23:54.248Z,2.40
2023-01-22T18:26:23.098Z,2.40
2023-01-22T18:28:51.745Z,2.40
2023-01-22T18:31:24.783Z,2.30
2023-01-22T18:33:53.029Z,2.30
2023-01-22T18:36:26.382Z,2.20
2023-01-22T18:38:54.417Z,2.20
2023-01-22T18:41:24.027Z,2.10
2023-01-22T18:43:59.801Z,2.10
2023-01-22T18:46:29.983Z,2.00
2023-01-22T18:49:00.070Z,2.00
2023-01-22T18:51:28.703Z,2.00
2023-01-22T18:53:57.120Z,2.00
2023-01-22T18:56:27.425Z,2.10
2023-01-22T18:58:58.587Z,2.10
2023-01-22T19:01:29.072Z,2.10
2023-01-22T19:03:59.059Z,2.20
2023-01-22T19:06:30.102Z,2.20
2023-01-22T19:09:14.333Z,2.20
2023-01-22T19:11:42.984Z,2.20
2023-01-22T19:14:13.759Z,2.20
2023-01-22T19:16:44.937Z,2.20
2023-01-22T19:19:13.708Z,2.20
2023-01-22T19:21:47.332Z,2.20
2023-01-22T19:24:17.211Z,2.10
2023-01-22T19:26:46.699Z,2.20
2023-01-22T19:29:20.016Z,2.20
2023-01-22T19:31:52.130Z,2.30
2023-01-22T19:34:25.565Z,2.30
2023-01-22T19:36:55.853Z,2.30
2023-01-22T19:39:27.911Z,2.30
2023-01-22T19:41:56.766Z,2.30
2023-01-22T19:44:24.146Z,2.30
2023-01-22T19:46:51.939Z,2.30
2023-01-22T19:49:19.289Z,2.30
2023-01-22T19:51:47.129Z,2.20
2023-01-22T19:54:14.706Z,2.20
2023-01-22T19:56:46.146Z,2.20
2023-01-22T19:59:16.239Z,2.30
2023-01-22T20:01:45.777Z,2.30
2023-01-22T20:04:29.945Z,2.30
2023-01-22T20:06:59.505Z,2.30
2023-01-22T20:09:26.849Z,2.30
2023-01-22T20:11:56.008Z,2.30
2023-01-22T20:14:25.456Z,2.30
2023-01-22T20:16:52.860Z,2.30
2023-01-22T20:19:20.133Z,2.30
2023-01-22T20:21:47.437Z,2.30
2023-01-22T20:24:15.106Z,2.30
2023-01-22T20:26:42.567Z,2.20
2023-01-22T20:29:09.875Z,2.20
2023-01-22T20:31:37.303Z,2.10
2023-01-22T20:34:05.215Z,2.10
2023-01-22T20:36:32.894Z,2.10
2023-01-22T20:39:01.929Z,2.00
2023-01-22T20:41:30.811Z,2.00
2023-01-22T20:43:58.027Z,2.10
2023-01-22T20:46:27.105Z,2.10
2023-01-22T20:48:57.581Z,2.10
2023-01-22T20:51:27.713Z,2.10
2023-01-22T20:53:56.497Z,2.10
2023-01-22T20:56:31.634Z,2.00
2023-01-22T20:59:02.087Z,1.90
2023-01-22T21:01:29.939Z,1.90
2023-01-22T21:03:58.830Z,1.80
2023-01-22T21:06:30.012Z,1.80
2023-01-22T21:08:58.697Z,1.80
2023-01-22T21:11:28.481Z,1.80
2023-01-22T21:13:57.919Z,1.90
2023-01-22T21:16:34.392Z,1.90
2023-01-22T21:19:07.049Z,1.90
2023-01-22T21:21:35.752Z,1.90
2023-01-22T21:24:03.048Z,1.90
2023-01-22T21:26:32.391Z,1.90
2023-01-22T21:29:06.289Z,1.90
2023-01-22T21:31:33.503Z,1.90
2023-01-22T21:34:02.911Z,1.90
2023-01-22T21:36:45.715Z,1.90
2023-01-22T21:39:16.429Z,1.90
2023-01-22T21:41:44.407Z,2.00
2023-01-22T21:44:31.908Z,2.00
2023-01-22T21:46:59.219Z,2.00
2023-01-22T21:49:27.013Z,2.00
2023-01-22T21:51:59.955Z,2.00
2023-01-22T21:54:39.157Z,2.00
2023-01-22T21:57:08.084Z,2.00
2023-01-22T21:59:37.036Z,2.00
2023-01-22T22:02:05.667Z,2.00
2023-01-22T22:04:33.612Z,2.00
2023-01-22T22:07:00.880Z,2.00
2023-01-22T22:09:29.647Z,2.00
2023-01-22T22:11:59.025Z,2.00
2023-01-22T22:14:27.040Z,2.00
2023-01-22T22:16:55.107Z,2.00
2023-01-22T22:19:23.453Z,2.00
2023-01-22T22:21:51.284Z,2.00
2023-01-22T22:24:20.027Z,2.00
2023-01-22T22:26:47.571Z,2.10
2023-01-22T22:29:14.807Z,2.10
2023-01-22T22:31:42.186Z,2.10
2023-01-22T22:34:09.588Z,2.00
2023-01-22T22:36:36.978Z,2.00
2023-01-22T22:39:06.677Z,2.00
2023-01-22T22:41:36.252Z,2.00
2023-01-22T22:44:04.383Z,2.00
2023-01-22T22:46:37.182Z,2.10
2023-01-22T22:49:05.676Z,2.10
2023-01-22T22:51:38.401Z,2.10
2023-01-22T22:54:15.042Z,2.10
2023-01-22T22:56:44.729Z,2.20
2023-01-22T22:59:12.721Z,2.10
2023-01-22T23:01:40.181Z,2.10
2023-01-22T23:04:08.819Z,2.10
2023-01-22T23:06:37.280Z,2.20
2023-01-22T23:09:13.745Z,2.20
2023-01-22T23:11:42.136Z,2.10
2023-01-22T23:14:10.196Z,2.10
2023-01-22T23:16:40.665Z,2.10
2023-01-22T23:19:12.625Z,2.10
2023-01-22T23:21:43.088Z,2.20
2023-01-22T23:24:12.626Z,2.10
2023-01-22T23:26:41.341Z,2.10
2023-01-22T23:29:10.942Z,2.20
2023-01-22T23:31:39.513Z,2.10
2023-01-22T23:34:09.309Z,2.20
2023-01-22T23:36:36.866Z,2.20
2023-01-22T23:39:04.560Z,2.20
2023-01-22T23:41:31.863Z,2.20
2023-01-22T23:43:59.235Z,2.20
2023-01-22T23:46:28.312Z,2.20
2023-01-22T23:48:59.236Z,2.20
2023-01-22T23:51:27.569Z,2.30
2023-01-22T23:53:55.376Z,2.30
2023-01-22T23:56:27.712Z,2.30
2023-01-22T23:58:55.991Z,2.30
